createdAt,value
2018-07-30T00:00:08.187Z,0.00
2018-07-30T00:01:08.152Z,0.00
2018-07-30T00:02:08.129Z,0.00
2018-07-30T00:03:08.095Z,0.00
2018-07-30T00:04:08.067Z,0.00
2018-07-30T00:05:08.034Z,0.00
2018-07-30T00:06:08.003Z,0.00
2018-07-30T00:07:07.972Z,0.00
2018-07-30T00:08:07.946Z,0.00
2018-07-30T00:09:07.907Z,0.00
2018-07-30T00:10:07.877Z,0.00
2018-07-30T00:11:07.848Z,0.00
2018-07-30T00:12:07.820Z,0.00
2018-07-30T00:13:07.787Z,0.00
2018-07-30T00:14:07.790Z,0.00
2018-07-30T00:15:07.724Z,0.00
2018-07-30T00:16:07.694Z,0.00
2018-07-30T00:17:07.670Z,0.00
2018-07-30T00:18:07.636Z,0.00
2018-07-30T00:19:07.605Z,0.00
2018-07-30T00:20:07.574Z,0.00
2018-07-30T00:21:07.540Z,0.00
2018-07-30T00:22:07.507Z,0.00
2018-07-30T00:23:07.476Z,0.00
2018-07-30T00:24:07.448Z,0.00
2018-07-30T00:25:07.422Z,0.00
2018-07-30T00:26:07.392Z,0.00
2018-07-30T00:27:07.355Z,0.00
2018-07-30T00:28:07.326Z,0.00
2018-07-30T00:29:07.297Z,0.00
2018-07-30T00:30:07.267Z,0.00
2018-07-30T00:31:07.237Z,0.00
2018-07-30T00:32:07.205Z,0.00
2018-07-30T00:33:07.176Z,0.00
2018-07-30T00:34:07.139Z,0.00
2018-07-30T00:35:07.107Z,0.00
2018-07-30T00:36:07.078Z,0.00
2018-07-30T00:37:07.053Z,0.00
2018-07-30T00:38:07.021Z,0.00
2018-07-30T00:39:06.991Z,0.00
2018-07-30T00:40:06.963Z,0.00
2018-07-30T00:41:06.928Z,0.00
2018-07-30T00:42:06.891Z,0.00
2018-07-30T00:43:06.867Z,0.00
2018-07-30T00:44:06.836Z,0.00
2018-07-30T00:45:06.803Z,0.00
2018-07-30T00:46:06.768Z,0.00
2018-07-30T00:47:06.737Z,0.00
2018-07-30T00:48:06.741Z,0.00
2018-07-30T00:49:06.681Z,0.00
2018-07-30T00:50:06.651Z,0.00
2018-07-30T00:51:06.620Z,0.00
2018-07-30T00:52:06.593Z,0.00
2018-07-30T00:53:06.561Z,0.00
2018-07-30T00:54:06.527Z,0.00
2018-07-30T00:55:06.494Z,0.00
2018-07-30T00:56:06.463Z,0.00
2018-07-30T00:57:06.435Z,0.00
2018-07-30T00:58:06.403Z,0.00
2018-07-30T00:59:06.367Z,0.00
2018-07-30T01:00:06.339Z,0.00
2018-07-30T01:01:06.309Z,0.00
2018-07-30T01:02:06.279Z,0.00
2018-07-30T01:03:06.248Z,0.00
2018-07-30T01:04:06.217Z,0.00
2018-07-30T01:05:06.194Z,0.00
2018-07-30T01:06:06.149Z,0.00
2018-07-30T01:07:06.118Z,0.00
2018-07-30T01:08:06.091Z,0.00
2018-07-30T01:09:06.063Z,0.00
2018-07-30T01:10:06.031Z,0.00
2018-07-30T01:11:06.003Z,0.00
2018-07-30T01:12:05.968Z,0.00
2018-07-30T01:13:05.935Z,0.00
2018-07-30T01:14:05.901Z,0.00
2018-07-30T01:15:05.878Z,0.00
2018-07-30T01:16:05.844Z,0.00
2018-07-30T01:17:05.811Z,0.00
2018-07-30T01:18:05.776Z,0.00
2018-07-30T01:19:05.746Z,0.00
2018-07-30T01:20:05.718Z,0.00
2018-07-30T01:21:05.689Z,0.00
2018-07-30T01:22:05.664Z,0.00
2018-07-30T01:23:05.631Z,0.00
2018-07-30T01:24:05.598Z,0.00
2018-07-30T01:25:05.566Z,0.00
2018-07-30T01:26:05.530Z,0.00
2018-07-30T01:27:05.498Z,0.00
2018-07-30T01:28:05.468Z,0.00
2018-07-30T01:29:05.440Z,0.00
2018-07-30T01:30:05.409Z,0.00
2018-07-30T01:31:05.375Z,0.00
2018-07-30T01:32:05.344Z,0.00
2018-07-30T01:33:05.316Z,0.00
2018-07-30T01:34:05.287Z,0.00
2018-07-30T01:35:05.255Z,0.00
2018-07-30T01:36:05.224Z,0.00
2018-07-30T01:37:05.192Z,0.00
2018-07-30T01:38:05.159Z,0.00
2018-07-30T01:39:05.125Z,0.00
2018-07-30T01:40:05.100Z,0.00
2018-07-30T01:41:05.068Z,0.00
2018-07-30T01:42:05.037Z,0.00
2018-07-30T01:43:05.008Z,0.00
2018-07-30T01:44:04.975Z,0.00
2018-07-30T01:45:04.943Z,0.00
2018-07-30T01:46:04.909Z,0.00
2018-07-30T01:47:04.883Z,0.00
2018-07-30T01:48:04.853Z,0.00
2018-07-30T01:49:04.818Z,0.00
2018-07-30T01:50:04.784Z,0.00
2018-07-30T01:51:04.753Z,0.00
2018-07-30T01:52:04.731Z,0.00
2018-07-30T01:53:04.699Z,0.00
2018-07-30T01:54:04.672Z,0.00
2018-07-30T01:55:04.636Z,0.00
2018-07-30T01:56:04.602Z,0.00
2018-07-30T01:57:04.570Z,0.00
2018-07-30T01:58:04.534Z,0.00
2018-07-30T01:59:04.522Z,0.00
2018-07-30T02:00:04.476Z,0.00
2018-07-30T02:01:04.448Z,0.00
2018-07-30T02:02:04.422Z,0.00
2018-07-30T02:03:04.380Z,0.00
2018-07-30T02:04:04.353Z,0.00
2018-07-30T02:05:04.324Z,0.00
2018-07-30T02:06:04.293Z,0.00
2018-07-30T02:07:04.274Z,0.00
2018-07-30T02:08:04.233Z,0.00
2018-07-30T02:09:04.200Z,0.00
2018-07-30T02:10:04.170Z,0.00
2018-07-30T02:11:04.135Z,0.00
2018-07-30T02:12:04.104Z,0.00
2018-07-30T02:13:04.074Z,0.00
2018-07-30T02:14:04.043Z,0.00
2018-07-30T02:15:04.014Z,0.00
2018-07-30T02:16:03.981Z,0.00
2018-07-30T02:17:03.947Z,0.00
2018-07-30T02:18:03.918Z,0.00
2018-07-30T02:19:03.889Z,0.00
2018-07-30T02:20:03.856Z,0.00
2018-07-30T02:21:03.826Z,0.00
2018-07-30T02:22:03.791Z,0.00
2018-07-30T02:23:03.764Z,0.00
2018-07-30T02:24:03.736Z,0.00
2018-07-30T02:25:03.705Z,0.00
2018-07-30T02:26:03.670Z,0.00
2018-07-30T02:27:03.639Z,0.00
2018-07-30T02:28:03.606Z,0.00
2018-07-30T02:29:03.574Z,0.00
2018-07-30T02:30:03.541Z,0.00
2018-07-30T02:31:03.507Z,0.00
2018-07-30T02:32:03.486Z,0.00
2018-07-30T02:33:03.480Z,0.00
2018-07-30T02:34:03.422Z,0.00
2018-07-30T02:35:03.385Z,0.00
2018-07-30T02:36:03.355Z,0.00
2018-07-30T02:37:03.326Z,0.00
2018-07-30T02:38:03.296Z,0.00
2018-07-30T02:39:03.264Z,0.00
2018-07-30T02:40:03.233Z,0.00
2018-07-30T02:41:03.200Z,0.00
2018-07-30T02:42:03.166Z,0.00
2018-07-30T02:43:03.138Z,0.00
2018-07-30T02:44:03.105Z,0.00
2018-07-30T02:45:03.076Z,0.00
2018-07-30T02:46:03.046Z,0.00
2018-07-30T02:47:03.019Z,0.00
2018-07-30T02:48:02.982Z,0.00
2018-07-30T02:49:02.950Z,0.00
2018-07-30T02:50:02.917Z,0.00
2018-07-30T02:51:02.895Z,0.00
2018-07-30T02:52:02.857Z,0.00
2018-07-30T02:53:02.824Z,0.00
2018-07-30T02:54:02.792Z,0.00
2018-07-30T02:55:02.759Z,0.00
2018-07-30T02:56:02.730Z,0.00
2018-07-30T02:57:02.703Z,0.00
2018-07-30T02:58:02.672Z,0.00
2018-07-30T02:59:02.643Z,0.00
2018-07-30T03:00:02.607Z,0.00
2018-07-30T03:01:02.574Z,0.00
2018-07-30T03:02:02.551Z,0.00
2018-07-30T03:03:02.509Z,0.00
2018-07-30T03:04:02.478Z,0.00
2018-07-30T03:05:02.450Z,0.00
2018-07-30T03:06:02.420Z,0.00
2018-07-30T03:07:02.382Z,0.00
2018-07-30T03:08:02.355Z,0.00
2018-07-30T03:09:02.324Z,0.00
2018-07-30T03:10:02.298Z,0.00
2018-07-30T03:11:02.264Z,0.00
2018-07-30T03:12:02.231Z,0.00
2018-07-30T03:13:02.196Z,0.00
2018-07-30T03:14:02.163Z,0.00
2018-07-30T03:15:02.131Z,0.00
2018-07-30T03:16:02.102Z,0.00
2018-07-30T03:17:02.081Z,0.00
2018-07-30T03:18:02.046Z,0.00
2018-07-30T03:19:02.012Z,0.00
2018-07-30T03:20:01.980Z,0.00
2018-07-30T03:21:01.945Z,0.00
2018-07-30T03:22:01.913Z,4.00
2018-07-30T03:23:01.887Z,4.00
2018-07-30T03:24:01.851Z,0.00
2018-07-30T03:25:01.820Z,4.00
2018-07-30T03:26:01.785Z,4.00
2018-07-30T03:27:01.754Z,4.00
2018-07-30T03:28:01.724Z,4.00
2018-07-30T03:29:01.699Z,4.00
2018-07-30T03:30:01.666Z,4.00
2018-07-30T03:31:01.632Z,8.00
2018-07-30T03:32:01.600Z,8.00
2018-07-30T03:33:01.566Z,8.00
2018-07-30T03:34:01.531Z,12.00
2018-07-30T03:35:01.500Z,12.00
2018-07-30T03:36:01.471Z,16.00
2018-07-30T03:37:01.441Z,12.00
2018-07-30T03:38:01.411Z,16.00
2018-07-30T03:39:01.372Z,20.00
2018-07-30T03:40:01.349Z,20.00
2018-07-30T03:41:01.320Z,24.00
2018-07-30T03:42:01.285Z,28.00
2018-07-30T03:43:01.253Z,28.00
2018-07-30T03:44:01.219Z,32.00
2018-07-30T03:45:01.195Z,40.00
2018-07-30T03:46:01.152Z,44.00
2018-07-30T03:47:01.148Z,48.00
2018-07-30T03:48:01.150Z,52.00
2018-07-30T03:49:01.061Z,60.00
2018-07-30T03:50:01.032Z,64.00
2018-07-30T03:51:01.000Z,68.00
2018-07-30T04:08:32.002Z,200.00
2018-07-30T04:09:31.934Z,212.00
2018-07-30T04:10:31.892Z,232.00
2018-07-30T04:11:31.857Z,248.00
2018-07-30T04:12:31.822Z,256.00
2018-07-30T04:13:31.801Z,264.00
2018-07-30T04:14:31.756Z,280.00
2018-07-30T04:15:31.723Z,304.00
2018-07-30T04:16:31.687Z,332.00
2018-07-30T04:17:31.652Z,360.00
2018-07-30T04:18:31.614Z,384.00
2018-07-30T04:19:31.581Z,404.00
2018-07-30T04:20:31.549Z,424.00
2018-07-30T04:21:31.513Z,448.00
2018-07-30T04:22:31.486Z,476.00
2018-07-30T04:23:31.453Z,496.00
2018-07-30T04:24:31.416Z,516.00
2018-07-30T04:25:31.381Z,544.00
2018-07-30T04:26:31.358Z,572.00
2018-07-30T04:27:31.319Z,596.00
2018-07-30T04:28:31.291Z,624.00
2018-07-30T04:29:31.256Z,656.00
2018-07-30T04:30:31.220Z,696.00
2018-07-30T04:31:31.189Z,728.00
2018-07-30T04:32:31.159Z,760.00
2018-07-30T04:33:31.121Z,800.00
2018-07-30T04:34:31.098Z,784.00
2018-07-30T04:35:31.061Z,844.00
2018-07-30T04:36:31.038Z,924.00
2018-07-30T04:37:31.004Z,1016.00
2018-07-30T04:38:30.960Z,1036.00
2018-07-30T04:39:30.934Z,1000.00
2018-07-30T04:40:30.905Z,1100.00
2018-07-30T04:41:30.875Z,1004.00
2018-07-30T04:42:30.839Z,1032.00
2018-07-30T04:43:30.807Z,1056.00
2018-07-30T04:44:30.774Z,1108.00
2018-07-30T04:45:30.738Z,1072.00
2018-07-30T04:46:30.712Z,1296.00
2018-07-30T04:47:30.677Z,1352.00
2018-07-30T04:48:30.648Z,1372.00
2018-07-30T04:49:30.618Z,1412.00
2018-07-30T04:50:30.580Z,1436.00
2018-07-30T04:51:30.550Z,1488.00
2018-07-30T04:52:30.518Z,1520.00
2018-07-30T04:53:30.483Z,1528.00
2018-07-30T04:54:30.460Z,1552.00
2018-07-30T04:55:30.426Z,1448.00
2018-07-30T04:56:30.394Z,1356.00
2018-07-30T04:57:30.357Z,1180.00
2018-07-30T04:58:30.331Z,1316.00
2018-07-30T04:59:30.299Z,1532.00
2018-07-30T05:00:30.267Z,1576.00
2018-07-30T05:01:30.244Z,1484.00
2018-07-30T05:02:30.201Z,1136.00
2018-07-30T05:03:30.181Z,1116.00
2018-07-30T05:04:30.144Z,1064.00
2018-07-30T05:05:30.115Z,1048.00
2018-07-30T05:06:30.086Z,1028.00
2018-07-30T05:07:30.049Z,1008.00
2018-07-30T05:08:30.016Z,1016.00
2018-07-30T05:09:29.991Z,1028.00
2018-07-30T05:10:29.953Z,1056.00
2018-07-30T05:11:29.923Z,1072.00
2018-07-30T05:12:29.894Z,1116.00
2018-07-30T05:13:29.863Z,1264.00
2018-07-30T05:14:29.826Z,1548.00
2018-07-30T05:15:29.797Z,1824.00
2018-07-30T05:16:29.765Z,1816.00
2018-07-30T05:17:29.731Z,1636.00
2018-07-30T05:18:29.708Z,1588.00
2018-07-30T05:19:29.800Z,1444.00
2018-07-30T05:20:29.647Z,1656.00
2018-07-30T05:21:29.618Z,1444.00
2018-07-30T05:22:29.577Z,1424.00
2018-07-30T05:23:29.548Z,1936.00
2018-07-30T05:24:29.517Z,2144.00
2018-07-30T05:25:29.529Z,2208.00
2018-07-30T05:26:29.457Z,2348.00
2018-07-30T05:27:29.424Z,2388.00
2018-07-30T05:28:29.392Z,2456.00
2018-07-30T05:29:29.361Z,2500.00
2018-07-30T05:30:29.334Z,2548.00
2018-07-30T05:31:29.315Z,2588.00
2018-07-30T05:32:29.297Z,2648.00
2018-07-30T05:33:29.239Z,2692.00
2018-07-30T05:34:29.206Z,2768.00
2018-07-30T05:35:29.182Z,2876.00
2018-07-30T05:36:29.148Z,2940.00
2018-07-30T05:37:29.122Z,3028.00
2018-07-30T05:38:29.084Z,3112.00
2018-07-30T05:39:29.056Z,3196.00
2018-07-30T05:40:29.024Z,3152.00
2018-07-30T05:41:28.993Z,2668.00
2018-07-30T05:42:28.958Z,2428.00
2018-07-30T05:43:28.926Z,2504.00
2018-07-30T05:44:28.909Z,2640.00
2018-07-30T05:45:28.868Z,2624.00
2018-07-30T05:46:28.840Z,2668.00
2018-07-30T05:47:28.804Z,2876.00
2018-07-30T05:48:28.773Z,2884.00
2018-07-30T05:49:28.747Z,2768.00
2018-07-30T05:50:28.720Z,2768.00
2018-07-30T05:51:28.688Z,2824.00
2018-07-30T05:52:28.658Z,3132.00
2018-07-30T05:53:28.626Z,3152.00
2018-07-30T05:54:28.602Z,3268.00
2018-07-30T05:55:28.561Z,3084.00
2018-07-30T05:56:28.531Z,2812.00
2018-07-30T05:57:28.503Z,2340.00
2018-07-30T05:58:28.474Z,2296.00
2018-07-30T05:59:28.518Z,2260.00
2018-07-30T06:00:28.412Z,2244.00
2018-07-30T06:01:28.382Z,2240.00
2018-07-30T06:02:28.353Z,2236.00
2018-07-30T06:03:28.326Z,2244.00
2018-07-30T06:04:28.296Z,2276.00
2018-07-30T06:05:28.287Z,2312.00
2018-07-30T06:06:28.231Z,2332.00
2018-07-30T06:07:28.201Z,2356.00
2018-07-30T06:08:28.186Z,2384.00
2018-07-30T06:09:28.143Z,2408.00
2018-07-30T06:10:28.117Z,2416.00
2018-07-30T06:11:28.086Z,2448.00
2018-07-30T06:12:28.057Z,2464.00
2018-07-30T06:13:28.028Z,2464.00
2018-07-30T06:14:27.992Z,2504.00
2018-07-30T06:15:27.961Z,2564.00
2018-07-30T06:16:27.945Z,2608.00
2018-07-30T06:17:27.911Z,2656.00
2018-07-30T06:18:27.875Z,2692.00
2018-07-30T06:19:27.843Z,3160.00
2018-07-30T06:20:27.812Z,2700.00
2018-07-30T06:21:27.786Z,2688.00
2018-07-30T06:22:27.755Z,2680.00
2018-07-30T06:23:27.729Z,2768.00
2018-07-30T06:24:27.700Z,2696.00
2018-07-30T06:25:27.668Z,2672.00
2018-07-30T06:26:27.710Z,2740.00
2018-07-30T06:27:27.675Z,2780.00
2018-07-30T06:28:27.577Z,2820.00
2018-07-30T06:29:27.547Z,3992.00
2018-07-30T06:30:27.520Z,2916.00
2018-07-30T06:31:27.491Z,2900.00
2018-07-30T06:32:27.457Z,2908.00
2018-07-30T06:33:27.438Z,3000.00
2018-07-30T06:34:27.408Z,3068.00
2018-07-30T06:35:27.374Z,2816.00
2018-07-30T06:36:27.345Z,2788.00
2018-07-30T06:37:27.313Z,4080.00
2018-07-30T06:38:27.310Z,2912.00
2018-07-30T06:39:27.250Z,2956.00
2018-07-30T06:40:27.222Z,3284.00
2018-07-30T06:41:27.199Z,2900.00
2018-07-30T06:42:27.207Z,2996.00
2018-07-30T06:43:27.139Z,3016.00
2018-07-30T06:44:27.112Z,3012.00
2018-07-30T06:45:27.079Z,3372.00
2018-07-30T06:46:27.047Z,3592.00
2018-07-30T06:47:27.020Z,3124.00
2018-07-30T06:48:26.996Z,3224.00
2018-07-30T06:49:26.963Z,3184.00
2018-07-30T06:50:26.931Z,3536.00
2018-07-30T06:51:26.899Z,3316.00
2018-07-30T06:52:26.870Z,3336.00
2018-07-30T06:53:26.842Z,3248.00
2018-07-30T06:54:26.816Z,3212.00
2018-07-30T06:55:26.793Z,3624.00
2018-07-30T06:56:26.760Z,5344.00
2018-07-30T06:57:26.728Z,5548.00
2018-07-30T06:58:26.698Z,3708.00
2018-07-30T06:59:26.670Z,3744.00
2018-07-30T07:00:26.638Z,3784.00
2018-07-30T07:01:26.610Z,3824.00
2018-07-30T07:02:26.592Z,3896.00
2018-07-30T07:03:26.558Z,3992.00
2018-07-30T07:04:26.522Z,4064.00
2018-07-30T07:05:26.497Z,3972.00
2018-07-30T07:06:26.468Z,3932.00
2018-07-30T07:07:26.440Z,3932.00
2018-07-30T07:08:26.412Z,4000.00
2018-07-30T07:09:26.390Z,4040.00
2018-07-30T07:10:26.352Z,4096.00
2018-07-30T07:11:26.319Z,4372.00
2018-07-30T07:12:26.292Z,4484.00
2018-07-30T07:13:26.279Z,4744.00
2018-07-30T07:14:26.240Z,4536.00
2018-07-30T07:15:26.213Z,4380.00
2018-07-30T07:16:26.236Z,4280.00
2018-07-30T07:17:26.153Z,4300.00
2018-07-30T07:18:26.120Z,4308.00
2018-07-30T07:19:26.092Z,4372.00
2018-07-30T07:20:26.068Z,4656.00
2018-07-30T07:21:26.064Z,4648.00
2018-07-30T07:22:26.009Z,4732.00
2018-07-30T07:23:25.992Z,4548.00
2018-07-30T07:24:25.947Z,4548.00
2018-07-30T07:25:25.919Z,4456.00
2018-07-30T07:26:25.896Z,4396.00
2018-07-30T07:27:25.877Z,4316.00
2018-07-30T07:28:25.841Z,4308.00
2018-07-30T07:29:25.814Z,4316.00
2018-07-30T07:30:25.778Z,4308.00
2018-07-30T07:31:25.748Z,4308.00
2018-07-30T07:32:25.720Z,4308.00
2018-07-30T07:33:25.693Z,4388.00
2018-07-30T07:34:25.669Z,4380.00
2018-07-30T07:35:25.641Z,4416.00
2018-07-30T07:36:25.608Z,4436.00
2018-07-30T07:37:25.579Z,4452.00
2018-07-30T07:38:25.554Z,4472.00
2018-07-30T07:39:25.530Z,4476.00
2018-07-30T07:40:25.584Z,4528.00
2018-07-30T07:41:25.469Z,4580.00
2018-07-30T07:42:25.441Z,4776.00
2018-07-30T07:43:25.410Z,4636.00
2018-07-30T07:44:25.383Z,4768.00
2018-07-30T07:45:25.358Z,4832.00
2018-07-30T07:46:25.329Z,4824.00
2018-07-30T07:47:25.305Z,4852.00
2018-07-30T07:48:25.277Z,4744.00
2018-07-30T07:49:25.244Z,4832.00
2018-07-30T07:50:25.305Z,4808.00
2018-07-30T07:51:25.191Z,4768.00
2018-07-30T07:52:25.165Z,4832.00
2018-07-30T07:53:25.133Z,4872.00
2018-07-30T07:54:25.105Z,4840.00
2018-07-30T07:55:25.073Z,4792.00
2018-07-30T07:56:25.054Z,4820.00
2018-07-30T07:57:25.017Z,4856.00
2018-07-30T07:58:24.997Z,4860.00
2018-07-30T07:59:24.974Z,4848.00
2018-07-30T08:00:24.940Z,4972.00
2018-07-30T08:01:24.919Z,5196.00
2018-07-30T08:02:24.879Z,4932.00
2018-07-30T08:03:24.851Z,4908.00
2018-07-30T08:04:24.822Z,4848.00
2018-07-30T08:05:24.795Z,4844.00
2018-07-30T08:06:24.774Z,4752.00
2018-07-30T08:07:24.747Z,4756.00
2018-07-30T08:08:24.711Z,4704.00
2018-07-30T08:09:24.684Z,4636.00
2018-07-30T08:10:24.659Z,4616.00
2018-07-30T08:11:24.636Z,4632.00
2018-07-30T08:12:24.611Z,4752.00
2018-07-30T08:13:24.577Z,5312.00
2018-07-30T08:14:24.546Z,5048.00
2018-07-30T08:15:24.516Z,5084.00
2018-07-30T08:16:24.522Z,5860.00
2018-07-30T08:17:24.463Z,5944.00
2018-07-30T08:18:24.442Z,5596.00
2018-07-30T08:19:24.427Z,4784.00
2018-07-30T08:20:24.386Z,4520.00
2018-07-30T08:21:24.359Z,5080.00
2018-07-30T08:22:24.373Z,4788.00
2018-07-30T08:23:24.295Z,3996.00
2018-07-30T08:24:24.274Z,3644.00
2018-07-30T08:25:24.243Z,3432.00
2018-07-30T08:26:24.219Z,3412.00
2018-07-30T08:27:24.185Z,3692.00
2018-07-30T08:28:24.160Z,3632.00
2018-07-30T08:29:24.133Z,3208.00
2018-07-30T08:30:24.109Z,3184.00
2018-07-30T08:31:24.084Z,3384.00
2018-07-30T08:32:24.055Z,5024.00
2018-07-30T08:33:24.026Z,4828.00
2018-07-30T08:34:23.996Z,4364.00
2018-07-30T08:35:23.966Z,3908.00
2018-07-30T08:36:23.940Z,4324.00
2018-07-30T08:37:23.911Z,3552.00
2018-07-30T08:38:23.888Z,3228.00
2018-07-30T08:39:23.862Z,3432.00
2018-07-30T08:40:23.831Z,3492.00
2018-07-30T08:41:23.804Z,3580.00
2018-07-30T08:42:23.887Z,4860.00
2018-07-30T08:43:23.755Z,4692.00
2018-07-30T08:44:23.725Z,4644.00
2018-07-30T08:45:23.700Z,3660.00
2018-07-30T08:46:23.667Z,4272.00
2018-07-30T08:47:23.643Z,4404.00
2018-07-30T08:48:23.612Z,4400.00
2018-07-30T08:49:23.586Z,4396.00
2018-07-30T08:50:23.578Z,4356.00
2018-07-30T08:51:23.535Z,4328.00
2018-07-30T08:52:23.507Z,4316.00
2018-07-30T08:53:23.484Z,4288.00
2018-07-30T08:54:23.448Z,4264.00
2018-07-30T08:55:23.422Z,4244.00
2018-07-30T08:56:23.453Z,4240.00
2018-07-30T08:57:23.368Z,4188.00
2018-07-30T08:58:23.338Z,4184.00
2018-07-30T08:59:23.317Z,4196.00
2018-07-30T09:00:23.283Z,4204.00
2018-07-30T09:01:23.256Z,4200.00
2018-07-30T09:02:23.232Z,4244.00
2018-07-30T09:03:23.213Z,4304.00
2018-07-30T09:04:23.180Z,4284.00
2018-07-30T09:05:23.150Z,4256.00
2018-07-30T09:06:23.124Z,4272.00
2018-07-30T09:07:23.094Z,4284.00
2018-07-30T09:08:23.070Z,4268.00
2018-07-30T09:09:23.043Z,4208.00
2018-07-30T09:10:23.016Z,4180.00
2018-07-30T09:11:22.990Z,4164.00
2018-07-30T09:12:23.014Z,4148.00
2018-07-30T09:13:22.930Z,4152.00
2018-07-30T09:14:22.906Z,4148.00
2018-07-30T09:15:22.881Z,4140.00
2018-07-30T09:16:22.855Z,4160.00
2018-07-30T09:17:22.836Z,4160.00
2018-07-30T09:18:22.868Z,4184.00
2018-07-30T09:19:22.768Z,4144.00
2018-07-30T09:20:22.740Z,4176.00
2018-07-30T09:21:22.717Z,4160.00
2018-07-30T09:22:22.693Z,4172.00
2018-07-30T09:23:22.671Z,4164.00
2018-07-30T09:24:22.640Z,4168.00
2018-07-30T09:25:22.608Z,4168.00
2018-07-30T09:26:22.585Z,4164.00
2018-07-30T09:27:22.553Z,4164.00
2018-07-30T09:28:22.531Z,4168.00
2018-07-30T09:29:22.502Z,4180.00
2018-07-30T09:30:22.478Z,4208.00
2018-07-30T09:31:22.450Z,4192.00
2018-07-30T09:32:22.421Z,4164.00
2018-07-30T09:33:22.393Z,4184.00
2018-07-30T09:34:22.372Z,4180.00
2018-07-30T09:35:22.348Z,4168.00
2018-07-30T09:36:22.317Z,4196.00
2018-07-30T09:37:22.287Z,4184.00
2018-07-30T09:38:22.260Z,4184.00
2018-07-30T09:39:22.283Z,4188.00
2018-07-30T09:40:22.209Z,4176.00
2018-07-30T09:41:22.179Z,4180.00
2018-07-30T09:42:22.155Z,4164.00
2018-07-30T09:43:22.130Z,4152.00
2018-07-30T09:44:22.116Z,4152.00
2018-07-30T09:45:22.073Z,4152.00
2018-07-30T09:46:22.049Z,4156.00
2018-07-30T09:47:22.027Z,4160.00
2018-07-30T09:48:21.998Z,4164.00
2018-07-30T09:49:21.968Z,4164.00
2018-07-30T09:50:21.939Z,4164.00
2018-07-30T09:51:21.927Z,4148.00
2018-07-30T09:52:21.887Z,4160.00
2018-07-30T09:53:21.858Z,4216.00
2018-07-30T09:54:21.838Z,4196.00
2018-07-30T09:55:21.813Z,4208.00
2018-07-30T09:56:21.872Z,4204.00
2018-07-30T09:57:21.809Z,4224.00
2018-07-30T09:58:21.725Z,4236.00
2018-07-30T09:59:21.715Z,4224.00
2018-07-30T10:00:21.678Z,4240.00
2018-07-30T10:01:21.651Z,4244.00
2018-07-30T10:02:21.622Z,4256.00
2018-07-30T10:03:21.600Z,4256.00
2018-07-30T10:04:21.568Z,4260.00
2018-07-30T10:05:21.540Z,4336.00
2018-07-30T10:06:21.569Z,4324.00
2018-07-30T10:07:21.510Z,4312.00
2018-07-30T10:21:28.933Z,4404.00
2018-07-30T10:22:28.889Z,4424.00
2018-07-30T10:23:28.852Z,4404.00
2018-07-30T10:24:28.813Z,4408.00
2018-07-30T10:25:28.784Z,4404.00
2018-07-30T10:26:28.758Z,4416.00
2018-07-30T10:27:28.729Z,4440.00
2018-07-30T10:28:28.720Z,4460.00
2018-07-30T10:29:28.668Z,4488.00
2018-07-30T10:30:28.647Z,4452.00
2018-07-30T10:31:28.613Z,4416.00
2018-07-30T10:32:28.588Z,4408.00
2018-07-30T10:33:28.561Z,4424.00
2018-07-30T10:34:28.585Z,2696.00
2018-07-30T10:35:28.508Z,4300.00
2018-07-30T10:36:28.475Z,2880.00
2018-07-30T10:37:28.459Z,3132.00
2018-07-30T10:38:28.421Z,4648.00
2018-07-30T10:39:28.394Z,3296.00
2018-07-30T10:40:28.370Z,4152.00
2018-07-30T10:41:28.345Z,4664.00
2018-07-30T10:42:28.316Z,4940.00
2018-07-30T10:43:28.288Z,4924.00
2018-07-30T10:44:28.263Z,5184.00
2018-07-30T10:45:28.239Z,5396.00
2018-07-30T10:46:28.258Z,3696.00
2018-07-30T10:47:28.182Z,5780.00
2018-07-30T10:48:28.229Z,4880.00
2018-07-30T10:49:28.126Z,5948.00
2018-07-30T10:50:28.100Z,5876.00
2018-07-30T10:51:28.074Z,4188.00
2018-07-30T10:52:28.052Z,5720.00
2018-07-30T10:53:28.026Z,6640.00
2018-07-30T10:54:27.999Z,5676.00
2018-07-30T10:55:27.970Z,6652.00
2018-07-30T10:56:27.947Z,6124.00
2018-07-30T10:57:27.914Z,4260.00
2018-07-30T10:58:27.894Z,4176.00
2018-07-30T10:59:27.866Z,4108.00
2018-07-30T11:00:27.839Z,4120.00
2018-07-30T11:01:27.811Z,4116.00
2018-07-30T11:02:27.785Z,4180.00
2018-07-30T11:03:27.764Z,4364.00
2018-07-30T11:04:27.736Z,6244.00
2018-07-30T11:05:27.713Z,4680.00
2018-07-30T11:06:27.685Z,4884.00
2018-07-30T11:07:27.660Z,6404.00
2018-07-30T11:08:27.630Z,6624.00
2018-07-30T11:09:27.601Z,6820.00
2018-07-30T11:10:27.577Z,6444.00
2018-07-30T11:11:27.553Z,7088.00
2018-07-30T11:12:27.527Z,6688.00
2018-07-30T11:13:27.507Z,6984.00
2018-07-30T11:14:27.472Z,7084.00
2018-07-30T11:15:27.453Z,7128.00
2018-07-30T11:16:27.424Z,6420.00
2018-07-30T11:17:27.400Z,5176.00
2018-07-30T11:18:27.375Z,5104.00
2018-07-30T11:19:27.346Z,4876.00
2018-07-30T11:20:27.321Z,5980.00
2018-07-30T11:21:27.340Z,4624.00
2018-07-30T11:22:27.271Z,4696.00
2018-07-30T11:23:27.244Z,4832.00
2018-07-30T11:24:27.217Z,7216.00
2018-07-30T11:25:27.209Z,7332.00
2018-07-30T11:26:27.165Z,7164.00
2018-07-30T11:27:27.139Z,7044.00
2018-07-30T11:28:27.116Z,6948.00
2018-07-30T11:29:27.092Z,6896.00
2018-07-30T11:30:27.061Z,6988.00
2018-07-30T11:31:27.037Z,6816.00
2018-07-30T11:32:27.016Z,6780.00
2018-07-30T11:33:27.053Z,6860.00
2018-07-30T11:34:26.970Z,6848.00
2018-07-30T11:35:26.938Z,5720.00
2018-07-30T11:36:26.912Z,6596.00
2018-07-30T11:37:26.886Z,6596.00
2018-07-30T11:38:26.864Z,5616.00
2018-07-30T11:39:26.836Z,6124.00
2018-07-30T11:40:26.813Z,6088.00
2018-07-30T11:41:26.789Z,6072.00
2018-07-30T11:42:26.765Z,4160.00
2018-07-30T11:43:26.739Z,4072.00
2018-07-30T11:44:26.712Z,4060.00
2018-07-30T11:45:26.690Z,4132.00
2018-07-30T11:46:26.664Z,4228.00
2018-07-30T11:47:26.636Z,5708.00
2018-07-30T11:48:26.681Z,5548.00
2018-07-30T11:49:26.584Z,4436.00
2018-07-30T11:50:26.557Z,4560.00
2018-07-30T11:51:26.540Z,5236.00
2018-07-30T11:52:26.512Z,5852.00
2018-07-30T11:53:26.492Z,5740.00
2018-07-30T11:54:26.541Z,5952.00
2018-07-30T11:55:26.440Z,6144.00
2018-07-30T11:56:26.410Z,6112.00
2018-07-30T11:57:26.382Z,5932.00
2018-07-30T11:58:26.357Z,5552.00
2018-07-30T11:59:26.335Z,4908.00
2018-07-30T12:00:26.313Z,5188.00
2018-07-30T12:01:26.350Z,5756.00
2018-07-30T12:02:26.259Z,5484.00
2018-07-30T12:03:26.234Z,5788.00
2018-07-30T12:04:26.213Z,5752.00
2018-07-30T12:05:26.189Z,5732.00
2018-07-30T12:06:26.162Z,5960.00
2018-07-30T12:07:26.135Z,5784.00
2018-07-30T12:08:26.119Z,5916.00
2018-07-30T12:09:26.081Z,6344.00
2018-07-30T12:10:26.056Z,6672.00
2018-07-30T12:11:26.035Z,6820.00
2018-07-30T12:12:26.011Z,6824.00
2018-07-30T12:13:25.997Z,6532.00
2018-07-30T12:14:25.962Z,6656.00
2018-07-30T12:15:25.935Z,6552.00
2018-07-30T12:16:25.908Z,6820.00
2018-07-30T12:17:25.882Z,6780.00
2018-07-30T12:18:25.861Z,6700.00
2018-07-30T12:19:25.835Z,6596.00
2018-07-30T12:20:25.809Z,6348.00
2018-07-30T12:21:25.792Z,4644.00
2018-07-30T12:22:25.757Z,5272.00
2018-07-30T12:23:25.734Z,5900.00
2018-07-30T12:24:25.714Z,5480.00
2018-07-30T12:25:25.691Z,5292.00
2018-07-30T12:26:25.677Z,4688.00
2018-07-30T12:27:25.643Z,5636.00
2018-07-30T12:28:25.610Z,5648.00
2018-07-30T12:29:25.585Z,5424.00
2018-07-30T12:30:25.574Z,5208.00
2018-07-30T12:31:25.539Z,6220.00
2018-07-30T12:32:25.513Z,6096.00
2018-07-30T12:33:25.491Z,5680.00
2018-07-30T12:34:25.460Z,5828.00
2018-07-30T12:35:25.438Z,6212.00
2018-07-30T12:36:25.454Z,6336.00
2018-07-30T12:37:25.400Z,6296.00
2018-07-30T12:38:25.369Z,6232.00
2018-07-30T12:39:25.342Z,6148.00
2018-07-30T12:40:25.314Z,6036.00
2018-07-30T12:41:25.289Z,4048.00
2018-07-30T12:42:25.263Z,3676.00
2018-07-30T12:43:25.243Z,3664.00
2018-07-30T12:44:25.220Z,5900.00
2018-07-30T12:45:25.195Z,5816.00
2018-07-30T12:46:25.171Z,3728.00
2018-07-30T12:47:25.151Z,3496.00
2018-07-30T12:48:25.118Z,3596.00
2018-07-30T12:49:25.104Z,3704.00
2018-07-30T12:50:25.129Z,3796.00
2018-07-30T12:51:25.053Z,3748.00
2018-07-30T12:52:25.019Z,4644.00
2018-07-30T12:53:24.992Z,5836.00
2018-07-30T12:54:24.970Z,5884.00
2018-07-30T12:55:24.945Z,5988.00
2018-07-30T12:56:24.923Z,5988.00